sensor_id;sensor_type;location;lat;lon;timestamp;P1;durP1;ratioP1;P2;durP2;ratioP2
26824;SDS011;14402;48.178;11.566;2023-04-24T00:00:29;0.6;;;0.3;;
26824;SDS011;14402;48.178;11.566;2023-04-24T00:00:59;0.6;;;0.3;;
26824;SDS011;14402;48.178;11.566;2023-04-24T00:01:29;0.8;;;0.4;;
26824;SDS011;14402;48.178;11.566;2023-04-24T00:01:59;0.9;;;0.5;;
26824;SDS011;14402;48.178;11.566;2023-04-24T00:02:30;0.9;;;0.5;;
26824;SDS011;14402;48.178;11.566;2023-04-24T00:03:00;0.9;;;0.5;;
26824;SDS011;14402;48.178;11.566;2023-04-24T00:03:30;1.5;;;0.4;;
26824;SDS011;14402;48.178;11.566;2023-04-24T00:04:00;2.0;;;0.4;;
26824;SDS011;14402;48.178;11.566;2023-04-24T00:04:30;2.0;;;0.4;;
26824;SDS011;14402;48.178;11.566;2023-04-24T00:05:00;2.0;;;0.4;;
26824;SDS011;14402;48.178;11.566;2023-04-24T00:05:30;1.5;;;0.4;;
26824;SDS011;14402;48.178;11.566;2023-04-24T00:06:00;1.1;;;0.4;;
26824;SDS011;14402;48.178;11.566;2023-04-24T00:06:30;1.1;;;0.4;;
26824;SDS011;14402;48.178;11.566;2023-04-24T00:07:00;1.1;;;0.4;;
26824;SDS011;14402;48.178;11.566;2023-04-24T00:07:30;1.2;;;0.4;;
26824;SDS011;14402;48.178;11.566;2023-04-24T00:08:00;1.3;;;0.3;;
26824;SDS011;14402;48.178;11.566;2023-04-24T00:08:30;1.3;;;0.3;;
26824;SDS011;14402;48.178;11.566;2023-04-24T00:09:00;1.3;;;0.3;;
26824;SDS011;14402;48.178;11.566;2023-04-24T00:09:30;1.1;;;0.4;;
26824;SDS011;14402;48.178;11.566;2023-04-24T00:10:00;0.9;;;0.4;;
26824;SDS011;14402;48.178;11.566;2023-04-24T00:10:30;0.9;;;0.4;;
26824;SDS011;14402;48.178;11.566;2023-04-24T00:11:01;0.9;;;0.4;;
26824;SDS011;14402;48.178;11.566;2023-04-24T00:11:31;0.9;;;0.4;;
26824;SDS011;14402;48.178;11.566;2023-04-24T00:12:01;0.8;;;0.4;;
26824;SDS011;14402;48.178;11.566;2023-04-24T00:12:31;0.8;;;0.4;;
26824;SDS011;14402;48.178;11.566;2023-04-24T00:13:01;0.8;;;0.4;;
26824;SDS011;14402;48.178;11.566;2023-04-24T00:13:31;0.9;;;0.4;;
26824;SDS011;14402;48.178;11.566;2023-04-24T00:14:01;1.0;;;0.4;;
26824;SDS011;14402;48.178;11.566;2023-04-24T00:14:31;1.0;;;0.4;;
26824;SDS011;14402;48.178;11.566;2023-04-24T00:15:02;1.0;;;0.4;;
26824;SDS011;14402;48.178;11.566;2023-04-24T00:15:31;1.1;;;0.4;;
26824;SDS011;14402;48.178;11.566;2023-04-24T00:16:01;1.3;;;0.5;;
26824;SDS011;14402;48.178;11.566;2023-04-24T00:16:31;1.3;;;0.5;;
26824;SDS011;14402;48.178;11.566;2023-04-24T00:17:02;1.3;;;0.5;;
26824;SDS011;14402;48.178;11.566;2023-04-24T00:17:32;1.0;;;0.4;;
26824;SDS011;14402;48.178;11.566;2023-04-24T00:18:02;0.8;;;0.4;;
26824;SDS011;14402;48.178;11.566;2023-04-24T00:18:31;0.8;;;0.4;;
26824;SDS011;14402;48.178;11.566;2023-04-24T00:19:02;0.8;;;0.4;;
26824;SDS011;14402;48.178;11.566;2023-04-24T00:19:32;1.2;;;0.4;;
26824;SDS011;14402;48.178;11.566;2023-04-24T00:20:02;1.6;;;0.5;;
26824;SDS011;14402;48.178;11.566;2023-04-24T00:20:32;1.6;;;0.5;;
26824;SDS011;14402;48.178;11.566;2023-04-24T00:21:02;1.6;;;0.5;;
26824;SDS011;14402;48.178;11.566;2023-04-24T00:21:32;1.8;;;0.5;;
26824;SDS011;14402;48.178;11.566;2023-04-24T00:22:02;1.9;;;0.5;;
26824;SDS011;14402;48.178;11.566;2023-04-24T00:22:32;1.9;;;0.5;;
26824;SDS011;14402;48.178;11.566;2023-04-24T00:23:02;1.9;;;0.5;;
26824;SDS011;14402;48.178;11.566;2023-04-24T00:23:32;1.4;;;0.4;;
26824;SDS011;14402;48.178;11.566;2023-04-24T00:24:02;0.8;;;0.4;;
26824;SDS011;14402;48.178;11.566;2023-04-24T00:24:32;0.8;;;0.4;;
26824;SDS011;14402;48.178;11.566;2023-04-24T00:25:03;0.8;;;0.4;;
26824;SDS011;14402;48.178;11.566;2023-04-24T00:25:32;0.7;;;0.4;;
26824;SDS011;14402;48.178;11.566;2023-04-24T00:26:02;0.6;;;0.4;;
26824;SDS011;14402;48.178;11.566;2023-04-24T00:26:33;0.6;;;0.4;;
26824;SDS011;14402;48.178;11.566;2023-04-24T00:27:03;0.6;;;0.4;;
26824;SDS011;14402;48.178;11.566;2023-04-24T00:27:33;1.3;;;0.4;;
26824;SDS011;14402;48.178;11.566;2023-04-24T00:28:03;2.0;;;0.5;;
26824;SDS011;14402;48.178;11.566;2023-04-24T00:28:33;2.0;;;0.5;;
26824;SDS011;14402;48.178;11.566;2023-04-24T00:29:03;2.0;;;0.5;;
26824;SDS011;14402;48.178;11.566;2023-04-24T00:29:33;1.2;;;0.4;;
26824;SDS011;14402;48.178;11.566;2023-04-24T00:30:03;0.5;;;0.4;;
26824;SDS011;14402;48.178;11.566;2023-04-24T00:30:33;0.5;;;0.4;;
26824;SDS011;14402;48.178;11.566;2023-04-24T00:31:03;0.5;;;0.4;;
26824;SDS011;14402;48.178;11.566;2023-04-24T00:31:33;1.5;;;0.4;;
26824;SDS011;14402;48.178;11.566;2023-04-24T00:32:03;2.5;;;0.5;;
26824;SDS011;14402;48.178;11.566;2023-04-24T00:32:33;2.5;;;0.5;;
26824;SDS011;14402;48.178;11.566;2023-04-24T00:33:03;2.5;;;0.5;;
26824;SDS011;14402;48.178;11.566;2023-04-24T00:33:33;1.5;;;0.4;;
26824;SDS011;14402;48.178;11.566;2023-04-24T00:34:03;0.6;;;0.4;;
26824;SDS011;14402;48.178;11.566;2023-04-24T00:34:34;0.6;;;0.4;;
26824;SDS011;14402;48.178;11.566;2023-04-24T00:35:04;0.6;;;0.4;;
26824;SDS011;14402;48.178;11.566;2023-04-24T00:35:34;0.9;;;0.4;;
26824;SDS011;14402;48.178;11.566;2023-04-24T00:36:04;1.1;;;0.5;;
26824;SDS011;14402;48.178;11.566;2023-04-24T00:36:34;1.1;;;0.5;;
26824;SDS011;14402;48.178;11.566;2023-04-24T00:37:04;1.1;;;0.5;;
26824;SDS011;14402;48.178;11.566;2023-04-24T00:37:34;1.1;;;0.4;;
26824;SDS011;14402;48.178;11.566;2023-04-24T00:38:04;1.1;;;0.4;;
26824;SDS011;14402;48.178;11.566;2023-04-24T00:38:34;1.1;;;0.4;;
26824;SDS011;14402;48.178;11.566;2023-04-24T00:39:04;1.1;;;0.4;;
26824;SDS011;14402;48.178;11.566;2023-04-24T00:39:34;1.1;;;0.4;;
26824;SDS011;14402;48.178;11.566;2023-04-24T00:40:05;1.1;;;0.3;;
26824;SDS011;14402;48.178;11.566;2023-04-24T00:40:34;1.1;;;0.3;;
26824;SDS011;14402;48.178;11.566;2023-04-24T00:41:04;1.1;;;0.3;;
26824;SDS011;14402;48.178;11.566;2023-04-24T00:41:34;1.2;;;0.4;;
26824;SDS011;14402;48.178;11.566;2023-04-24T00:42:04;1.3;;;0.4;;
26824;SDS011;14402;48.178;11.566;2023-04-24T00:42:35;1.3;;;0.4;;
26824;SDS011;14402;48.178;11.566;2023-04-24T00:43:05;1.3;;;0.4;;
26824;SDS011;14402;48.178;11.566;2023-04-24T00:43:35;2.3;;;0.4;;
26824;SDS011;14402;48.178;11.566;2023-04-24T00:44:05;3.3;;;0.5;;
26824;SDS011;14402;48.178;11.566;2023-04-24T00:44:35;3.3;;;0.5;;
26824;SDS011;14402;48.178;11.566;2023-04-24T00:45:05;3.3;;;0.5;;
26824;SDS011;14402;48.178;11.566;2023-04-24T00:45:35;2.2;;;0.4;;
26824;SDS011;14402;48.178;11.566;2023-04-24T00:46:05;1.1;;;0.4;;
26824;SDS011;14402;48.178;11.566;2023-04-24T00:46:35;1.1;;;0.4;;
26824;SDS011;14402;48.178;11.566;2023-04-24T00:47:05;1.1;;;0.4;;
26824;SDS011;14402;48.178;11.566;2023-04-24T00:47:35;1.1;;;0.4;;
26824;SDS011;14402;48.178;11.566;2023-04-24T00:48:05;1.1;;;0.4;;
26824;SDS011;14402;48.178;11.566;2023-04-24T00:48:35;1.1;;;0.4;;
26824;SDS011;14402;48.178;11.566;2023-04-24T00:49:05;1.1;;;0.4;;
26824;SDS011;14402;48.178;11.566;2023-04-24T00:49:35;0.9;;;0.4;;
26824;SDS011;14402;48.178;11.566;2023-04-24T00:50:06;0.7;;;0.3;;
26824;SDS011;14402;48.178;11.566;2023-04-24T00:50:36;0.7;;;0.3;;
26824;SDS011;14402;48.178;11.566;2023-04-24T00:51:06;0.7;;;0.3;;
26824;SDS011;14402;48.178;11.566;2023-04-24T00:51:35;0.8;;;0.4;;
26824;SDS011;14402;48.178;11.566;2023-04-24T00:52:06;0.9;;;0.4;;
26824;SDS011;14402;48.178;11.566;2023-04-24T00:52:36;0.9;;;0.4;;
26824;SDS011;14402;48.178;11.566;2023-04-24T00:53:06;0.9;;;0.4;;
26824;SDS011;14402;48.178;11.566;2023-04-24T00:53:36;1.1;;;0.4;;
26824;SDS011;14402;48.178;11.566;2023-04-24T00:54:06;1.4;;;0.5;;
26824;SDS011;14402;48.178;11.566;2023-04-24T00:54:36;1.4;;;0.5;;
26824;SDS011;14402;48.178;11.566;2023-04-24T00:55:06;1.4;;;0.5;;
26824;SDS011;14402;48.178;11.566;2023-04-24T00:55:36;1.5;;;0.5;;
26824;SDS011;14402;48.178;11.566;2023-04-24T00:56:06;1.5;;;0.5;;
26824;SDS011;14402;48.178;11.566;2023-04-24T00:56:36;1.5;;;0.5;;
26824;SDS011;14402;48.178;11.566;2023-04-24T00:57:06;1.5;;;0.5;;
26824;SDS011;14402;48.178;11.566;2023-04-24T00:57:36;1.5;;;0.4;;
26824;SDS011;14402;48.178;11.566;2023-04-24T00:58:06;1.4;;;0.4;;
26824;SDS011;14402;48.178;11.566;2023-04-24T00:58:36;1.4;;;0.4;;
26824;SDS011;14402;48.178;11.566;2023-04-24T00:59:07;1.4;;;0.4;;
26824;SDS011;14402;48.178;11.566;2023-04-24T00:59:37;1.5;;;0.4;;
26824;SDS011;14402;48.178;11.566;2023-04-24T01:00:07;1.5;;;0.5;;
26824;SDS011;14402;48.178;11.566;2023-04-24T01:00:37;1.5;;;0.5;;
26824;SDS011;14402;48.178;11.566;2023-04-24T01:01:07;1.5;;;0.5;;
26824;SDS011;14402;48.178;11.566;2023-04-24T01:01:37;1.1;;;0.4;;
26824;SDS011;14402;48.178;11.566;2023-04-24T01:02:07;0.8;;;0.4;;
26824;SDS011;14402;48.178;11.566;2023-04-24T01:02:37;0.8;;;0.4;;
26824;SDS011;14402;48.178;11.566;2023-04-24T01:03:07;0.8;;;0.4;;
26824;SDS011;14402;48.178;11.566;2023-04-24T01:03:37;0.8;;;0.4;;
26824;SDS011;14402;48.178;11.566;2023-04-24T01:04:07;0.7;;;0.3;;
26824;SDS011;14402;48.178;11.566;2023-04-24T01:04:37;0.7;;;0.3;;
26824;SDS011;14402;48.178;11.566;2023-04-24T01:05:07;0.7;;;0.3;;
26824;SDS011;14402;48.178;11.566;2023-04-24T01:05:37;1.0;;;0.2;;
26824;SDS011;14402;48.178;11.566;2023-04-24T01:06:07;1.2;;;0.2;;
26824;SDS011;14402;48.178;11.566;2023-04-24T01:06:38;1.2;;;0.2;;
26824;SDS011;14402;48.178;11.566;2023-04-24T01:07:08;1.2;;;0.2;;
26824;SDS011;14402;48.178;11.566;2023-04-24T01:07:38;1.1;;;0.2;;
26824;SDS011;14402;48.178;11.566;2023-04-24T01:08:08;1.0;;;0.3;;
26824;SDS011;14402;48.178;11.566;2023-04-24T01:08:38;1.0;;;0.3;;
26824;SDS011;14402;48.178;11.566;2023-04-24T01:09:08;1.0;;;0.3;;
26824;SDS011;14402;48.178;11.566;2023-04-24T01:09:38;0.9;;;0.3;;
26824;SDS011;14402;48.178;11.566;2023-04-24T01:10:08;0.9;;;0.3;;
26824;SDS011;14402;48.178;11.566;2023-04-24T01:10:38;0.9;;;0.3;;
26824;SDS011;14402;48.178;11.566;2023-04-24T01:11:08;0.9;;;0.3;;
26824;SDS011;14402;48.178;11.566;2023-04-24T01:11:38;0.6;;;0.3;;
26824;SDS011;14402;48.178;11.566;2023-04-24T01:12:08;0.4;;;0.3;;
26824;SDS011;14402;48.178;11.566;2023-04-24T01:12:38;0.4;;;0.3;;
26824;SDS011;14402;48.178;11.566;2023-04-24T01:13:08;0.4;;;0.3;;
26824;SDS011;14402;48.178;11.566;2023-04-24T01:13:38;0.4;;;0.2;;
26824;SDS011;14402;48.178;11.566;2023-04-24T01:14:08;0.4;;;0.2;;
26824;SDS011;14402;48.178;11.566;2023-04-24T01:14:38;0.4;;;0.2;;
26824;SDS011;14402;48.178;11.566;2023-04-24T01:15:09;0.4;;;0.2;;
26824;SDS011;14402;48.178;11.566;2023-04-24T01:15:38;0.4;;;0.2;;
26824;SDS011;14402;48.178;11.566;2023-04-24T01:16:09;0.4;;;0.3;;
26824;SDS011;14402;48.178;11.566;2023-04-24T01:16:39;0.4;;;0.3;;
26824;SDS011;14402;48.178;11.566;2023-04-24T01:17:10;0.4;;;0.3;;
26824;SDS011;14402;48.178;11.566;2023-04-24T01:17:39;0.6;;;0.3;;
26824;SDS011;14402;48.178;11.566;2023-04-24T01:18:09;0.7;;;0.3;;
26824;SDS011;14402;48.178;11.566;2023-04-24T01:18:39;0.7;;;0.3;;
26824;SDS011;14402;48.178;11.566;2023-04-24T01:19:09;0.7;;;0.3;;
26824;SDS011;14402;48.178;11.566;2023-04-24T01:19:39;0.9;;;0.3;;
26824;SDS011;14402;48.178;11.566;2023-04-24T01:20:09;1.0;;;0.3;;
26824;SDS011;14402;48.178;11.566;2023-04-24T01:20:40;1.0;;;0.3;;
26824;SDS011;14402;48.178;11.566;2023-04-24T01:21:09;1.0;;;0.3;;
26824;SDS011;14402;48.178;11.566;2023-04-24T01:21:39;0.7;;;0.2;;
26824;SDS011;14402;48.178;11.566;2023-04-24T01:22:10;0.4;;;0.2;;
26824;SDS011;14402;48.178;11.566;2023-04-24T01:22:39;0.4;;;0.2;;
26824;SDS011;14402;48.178;11.566;2023-04-24T01:23:09;0.4;;;0.2;;
26824;SDS011;14402;48.178;11.566;2023-04-24T01:23:39;0.6;;;0.2;;
26824;SDS011;14402;48.178;11.566;2023-04-24T01:24:09;0.9;;;0.2;;
26824;SDS011;14402;48.178;11.566;2023-04-24T01:24:40;0.9;;;0.2;;
26824;SDS011;14402;48.178;11.566;2023-04-24T01:25:10;0.9;;;0.2;;
26824;SDS011;14402;48.178;11.566;2023-04-24T01:25:40;0.8;;;0.3;;
26824;SDS011;14402;48.178;11.566;2023-04-24T01:26:10;0.6;;;0.4;;
26824;SDS011;14402;48.178;11.566;2023-04-24T01:26:40;0.6;;;0.4;;
26824;SDS011;14402;48.178;11.566;2023-04-24T01:27:10;0.6;;;0.4;;
26824;SDS011;14402;48.178;11.566;2023-04-24T01:27:40;1.3;;;0.4;;
26824;SDS011;14402;48.178;11.566;2023-04-24T01:28:10;2.0;;;0.4;;
26824;SDS011;14402;48.178;11.566;2023-04-24T01:28:40;2.0;;;0.4;;
26824;SDS011;14402;48.178;11.566;2023-04-24T01:29:10;2.0;;;0.4;;
26824;SDS011;14402;48.178;11.566;2023-04-24T01:29:40;1.4;;;0.4;;
26824;SDS011;14402;48.178;11.566;2023-04-24T01:30:11;0.7;;;0.3;;
26824;SDS011;14402;48.178;11.566;2023-04-24T01:30:40;0.7;;;0.3;;
26824;SDS011;14402;48.178;11.566;2023-04-24T01:31:10;0.7;;;0.3;;
26824;SDS011;14402;48.178;11.566;2023-04-24T01:31:40;0.8;;;0.3;;
26824;SDS011;14402;48.178;11.566;2023-04-24T01:32:11;0.8;;;0.3;;
26824;SDS011;14402;48.178;11.566;2023-04-24T01:32:41;0.8;;;0.3;;
26824;SDS011;14402;48.178;11.566;2023-04-24T01:33:11;0.8;;;0.3;;
26824;SDS011;14402;48.178;11.566;2023-04-24T01:33:41;0.8;;;0.4;;
26824;SDS011;14402;48.178;11.566;2023-04-24T01:34:11;0.7;;;0.4;;
26824;SDS011;14402;48.178;11.566;2023-04-24T01:34:41;0.7;;;0.4;;
26824;SDS011;14402;48.178;11.566;2023-04-24T01:35:11;0.7;;;0.4;;
26824;SDS011;14402;48.178;11.566;2023-04-24T01:35:41;0.6;;;0.4;;
26824;SDS011;14402;48.178;11.566;2023-04-24T01:36:11;0.5;;;0.3;;
26824;SDS011;14402;48.178;11.566;2023-04-24T01:36:41;0.5;;;0.3;;
26824;SDS011;14402;48.178;11.566;2023-04-24T01:37:11;0.5;;;0.3;;
26824;SDS011;14402;48.178;11.566;2023-04-24T01:37:41;0.6;;;0.3;;
26824;SDS011;14402;48.178;11.566;2023-04-24T01:38:11;0.8;;;0.3;;
26824;SDS011;14402;48.178;11.566;2023-04-24T01:38:41;0.8;;;0.3;;
26824;SDS011;14402;48.178;11.566;2023-04-24T01:39:11;0.8;;;0.3;;
26824;SDS011;14402;48.178;11.566;2023-04-24T01:39:41;0.9;;;0.2;;
26824;SDS011;14402;48.178;11.566;2023-04-24T01:40:11;0.9;;;0.2;;
26824;SDS011;14402;48.178;11.566;2023-04-24T01:40:42;0.9;;;0.2;;
26824;SDS011;14402;48.178;11.566;2023-04-24T01:41:12;0.9;;;0.2;;
26824;SDS011;14402;48.178;11.566;2023-04-24T01:41:42;0.6;;;0.2;;
26824;SDS011;14402;48.178;11.566;2023-04-24T01:42:12;0.3;;;0.2;;
26824;SDS011;14402;48.178;11.566;2023-04-24T01:42:42;0.3;;;0.2;;
26824;SDS011;14402;48.178;11.566;2023-04-24T01:43:12;0.3;;;0.2;;
26824;SDS011;14402;48.178;11.566;2023-04-24T01:43:42;0.4;;;0.2;;
26824;SDS011;14402;48.178;11.566;2023-04-24T01:44:12;0.5;;;0.2;;
26824;SDS011;14402;48.178;11.566;2023-04-24T01:44:42;0.5;;;0.2;;
26824;SDS011;14402;48.178;11.566;2023-04-24T01:45:12;0.5;;;0.2;;
26824;SDS011;14402;48.178;11.566;2023-04-24T01:45:42;0.5;;;0.2;;
26824;SDS011;14402;48.178;11.566;2023-04-24T01:46:12;0.5;;;0.3;;
26824;SDS011;14402;48.178;11.566;2023-04-24T01:46:42;0.5;;;0.3;;
26824;SDS011;14402;48.178;11.566;2023-04-24T01:47:12;0.5;;;0.3;;
26824;SDS011;14402;48.178;11.566;2023-04-24T01:47:42;0.6;;;0.3;;
26824;SDS011;14402;48.178;11.566;2023-04-24T01:48:13;0.7;;;0.3;;
26824;SDS011;14402;48.178;11.566;2023-04-24T01:48:42;0.7;;;0.3;;
26824;SDS011;14402;48.178;11.566;2023-04-24T01:49:12;0.7;;;0.3;;
26824;SDS011;14402;48.178;11.566;2023-04-24T01:49:43;0.5;;;0.3;;
26824;SDS011;14402;48.178;11.566;2023-04-24T01:50:13;0.3;;;0.3;;
26824;SDS011;14402;48.178;11.566;2023-04-24T01:50:43;0.3;;;0.3;;
26824;SDS011;14402;48.178;11.566;2023-04-24T01:51:13;0.3;;;0.3;;
26824;SDS011;14402;48.178;11.566;2023-04-24T01:51:43;0.6;;;0.3;;
26824;SDS011;14402;48.178;11.566;2023-04-24T01:52:13;0.9;;;0.3;;
26824;SDS011;14402;48.178;11.566;2023-04-24T01:52:43;0.9;;;0.3;;
26824;SDS011;14402;48.178;11.566;2023-04-24T01:53:13;0.9;;;0.3;;
26824;SDS011;14402;48.178;11.566;2023-04-24T01:53:43;0.7;;;0.2;;
26824;SDS011;14402;48.178;11.566;2023-04-24T01:54:13;0.5;;;0.2;;
26824;SDS011;14402;48.178;11.566;2023-04-24T01:54:43;0.5;;;0.2;;
26824;SDS011;14402;48.178;11.566;2023-04-24T01:55:13;0.5;;;0.2;;
26824;SDS011;14402;48.178;11.566;2023-04-24T01:55:43;0.7;;;0.2;;
26824;SDS011;14402;48.178;11.566;2023-04-24T01:56:13;0.9;;;0.2;;
26824;SDS011;14402;48.178;11.566;2023-04-24T01:56:43;0.9;;;0.2;;
26824;SDS011;14402;48.178;11.566;2023-04-24T01:57:13;0.9;;;0.2;;
26824;SDS011;14402;48.178;11.566;2023-04-24T01:57:43;2.8;;;0.4;;
26824;SDS011;14402;48.178;11.566;2023-04-24T01:58:14;4.6;;;0.6;;
26824;SDS011;14402;48.178;11.566;2023-04-24T01:58:44;4.6;;;0.6;;
26824;SDS011;14402;48.178;11.566;2023-04-24T01:59:14;4.6;;;0.6;;
26824;SDS011;14402;48.178;11.566;2023-04-24T01:59:44;2.5;;;0.5;;
26824;SDS011;14402;48.178;11.566;2023-04-24T02:00:14;0.4;;;0.3;;
26824;SDS011;14402;48.178;11.566;2023-04-24T02:00:44;0.4;;;0.3;;
26824;SDS011;14402;48.178;11.566;2023-04-24T02:01:15;0.4;;;0.3;;
26824;SDS011;14402;48.178;11.566;2023-04-24T02:01:44;0.6;;;0.3;;
26824;SDS011;14402;48.178;11.566;2023-04-24T02:02:14;0.8;;;0.3;;
26824;SDS011;14402;48.178;11.566;2023-04-24T02:02:44;0.8;;;0.3;;
26824;SDS011;14402;48.178;11.566;2023-04-24T02:03:14;0.8;;;0.3;;
26824;SDS011;14402;48.178;11.566;2023-04-24T02:03:44;0.5;;;0.2;;
26824;SDS011;14402;48.178;11.566;2023-04-24T02:04:14;0.2;;;0.2;;
26824;SDS011;14402;48.178;11.566;2023-04-24T02:04:44;0.2;;;0.2;;
26824;SDS011;14402;48.178;11.566;2023-04-24T02:05:14;0.2;;;0.2;;
26824;SDS011;14402;48.178;11.566;2023-04-24T02:05:44;0.6;;;0.2;;
26824;SDS011;14402;48.178;11.566;2023-04-24T02:06:15;0.9;;;0.3;;
26824;SDS011;14402;48.178;11.566;2023-04-24T02:06:45;0.9;;;0.3;;
26824;SDS011;14402;48.178;11.566;2023-04-24T02:07:15;0.9;;;0.3;;
26824;SDS011;14402;48.178;11.566;2023-04-24T02:07:45;0.7;;;0.2;;
26824;SDS011;14402;48.178;11.566;2023-04-24T02:08:15;0.5;;;0.2;;
26824;SDS011;14402;48.178;11.566;2023-04-24T02:08:45;0.5;;;0.2;;
26824;SDS011;14402;48.178;11.566;2023-04-24T02:09:15;0.5;;;0.2;;
26824;SDS011;14402;48.178;11.566;2023-04-24T02:09:45;0.9;;;0.2;;
26824;SDS011;14402;48.178;11.566;2023-04-24T02:10:15;1.2;;;0.2;;
26824;SDS011;14402;48.178;11.566;2023-04-24T02:10:45;1.2;;;0.2;;
26824;SDS011;14402;48.178;11.566;2023-04-24T02:11:15;1.2;;;0.2;;
26824;SDS011;14402;48.178;11.566;2023-04-24T02:11:45;0.9;;;0.2;;
26824;SDS011;14402;48.178;11.566;2023-04-24T02:12:16;0.5;;;0.2;;
26824;SDS011;14402;48.178;11.566;2023-04-24T02:12:45;0.5;;;0.2;;
26824;SDS011;14402;48.178;11.566;2023-04-24T02:13:15;0.5;;;0.2;;
26824;SDS011;14402;48.178;11.566;2023-04-24T02:13:45;0.5;;;0.2;;
26824;SDS011;14402;48.178;11.566;2023-04-24T02:14:15;0.5;;;0.2;;
26824;SDS011;14402;48.178;11.566;2023-04-24T02:14:45;0.5;;;0.2;;
26824;SDS011;14402;48.178;11.566;2023-04-24T02:15:16;0.5;;;0.2;;
26824;SDS011;14402;48.178;11.566;2023-04-24T02:15:46;0.5;;;0.2;;
26824;SDS011;14402;48.178;11.566;2023-04-24T02:16:16;0.5;;;0.3;;
26824;SDS011;14402;48.178;11.566;2023-04-24T02:16:46;0.5;;;0.3;;
26824;SDS011;14402;48.178;11.566;2023-04-24T02:17:17;0.5;;;0.3;;
26824;SDS011;14402;48.178;11.566;2023-04-24T02:17:46;0.7;;;0.3;;
26824;SDS011;14402;48.178;11.566;2023-04-24T02:18:16;0.9;;;0.3;;
26824;SDS011;14402;48.178;11.566;2023-04-24T02:18:46;0.9;;;0.3;;
26824;SDS011;14402;48.178;11.566;2023-04-24T02:19:16;0.9;;;0.3;;
26824;SDS011;14402;48.178;11.566;2023-04-24T02:19:46;0.7;;;0.2;;
26824;SDS011;14402;48.178;11.566;2023-04-24T02:20:16;0.5;;;0.2;;
26824;SDS011;14402;48.178;11.566;2023-04-24T02:20:46;0.5;;;0.2;;
26824;SDS011;14402;48.178;11.566;2023-04-24T02:21:16;0.5;;;0.2;;
26824;SDS011;14402;48.178;11.566;2023-04-24T02:21:46;0.6;;;0.2;;
26824;SDS011;14402;48.178;11.566;2023-04-24T02:22:16;0.6;;;0.2;;
26824;SDS011;14402;48.178;11.566;2023-04-24T02:22:46;0.6;;;0.2;;
26824;SDS011;14402;48.178;11.566;2023-04-24T02:23:16;0.6;;;0.2;;
26824;SDS011;14402;48.178;11.566;2023-04-24T02:23:46;0.6;;;0.2;;
26824;SDS011;14402;48.178;11.566;2023-04-24T02:24:17;0.5;;;0.2;;
26824;SDS011;14402;48.178;11.566;2023-04-24T02:24:47;0.5;;;0.2;;
26824;SDS011;14402;48.178;11.566;2023-04-24T02:25:17;0.5;;;0.2;;
26824;SDS011;14402;48.178;11.566;2023-04-24T02:25:47;0.5;;;0.2;;
26824;SDS011;14402;48.178;11.566;2023-04-24T02:26:17;0.5;;;0.2;;
26824;SDS011;14402;48.178;11.566;2023-04-24T02:26:47;0.5;;;0.2;;
26824;SDS011;14402;48.178;11.566;2023-04-24T02:27:17;0.5;;;0.2;;
26824;SDS011;14402;48.178;11.566;2023-04-24T02:27:47;0.7;;;0.2;;
26824;SDS011;14402;48.178;11.566;2023-04-24T02:28:17;0.9;;;0.3;;
26824;SDS011;14402;48.178;11.566;2023-04-24T02:28:47;0.9;;;0.3;;
26824;SDS011;14402;48.178;11.566;2023-04-24T02:29:17;0.9;;;0.3;;
26824;SDS011;14402;48.178;11.566;2023-04-24T02:29:47;0.7;;;0.3;;
26824;SDS011;14402;48.178;11.566;2023-04-24T02:30:17;0.5;;;0.3;;
26824;SDS011;14402;48.178;11.566;2023-04-24T02:30:47;0.5;;;0.3;;
26824;SDS011;14402;48.178;11.566;2023-04-24T02:31:17;0.5;;;0.3;;
26824;SDS011;14402;48.178;11.566;2023-04-24T02:31:47;0.9;;;0.3;;
26824;SDS011;14402;48.178;11.566;2023-04-24T02:32:17;1.2;;;0.3;;
26824;SDS011;14402;48.178;11.566;2023-04-24T02:32:47;1.2;;;0.3;;
26824;SDS011;14402;48.178;11.566;2023-04-24T02:33:17;1.2;;;0.3;;
26824;SDS011;14402;48.178;11.566;2023-04-24T02:33:48;0.9;;;0.2;;
26824;SDS011;14402;48.178;11.566;2023-04-24T02:34:18;0.5;;;0.2;;
26824;SDS011;14402;48.178;11.566;2023-04-24T02:34:48;0.5;;;0.2;;
26824;SDS011;14402;48.178;11.566;2023-04-24T02:35:18;0.5;;;0.2;;
26824;SDS011;14402;48.178;11.566;2023-04-24T02:35:48;0.8;;;0.2;;
26824;SDS011;14402;48.178;11.566;2023-04-24T02:36:18;1.0;;;0.3;;
26824;SDS011;14402;48.178;11.566;2023-04-24T02:36:48;1.0;;;0.3;;
26824;SDS011;14402;48.178;11.566;2023-04-24T02:37:18;1.0;;;0.3;;
26824;SDS011;14402;48.178;11.566;2023-04-24T02:37:48;0.9;;;0.3;;
26824;SDS011;14402;48.178;11.566;2023-04-24T02:38:18;0.7;;;0.3;;
26824;SDS011;14402;48.178;11.566;2023-04-24T02:38:48;0.7;;;0.3;;
26824;SDS011;14402;48.178;11.566;2023-04-24T02:39:18;0.7;;;0.3;;
26824;SDS011;14402;48.178;11.566;2023-04-24T02:39:48;0.9;;;0.4;;
26824;SDS011;14402;48.178;11.566;2023-04-24T02:40:18;1.0;;;0.4;;
26824;SDS011;14402;48.178;11.566;2023-04-24T02:40:48;1.0;;;0.4;;
26824;SDS011;14402;48.178;11.566;2023-04-24T02:41:18;1.0;;;0.4;;
26824;SDS011;14402;48.178;11.566;2023-04-24T02:41:49;0.8;;;0.4;;
26824;SDS011;14402;48.178;11.566;2023-04-24T02:42:18;0.6;;;0.3;;
26824;SDS011;14402;48.178;11.566;2023-04-24T02:42:49;0.6;;;0.3;;
26824;SDS011;14402;48.178;11.566;2023-04-24T02:43:19;0.6;;;0.3;;
26824;SDS011;14402;48.178;11.566;2023-04-24T02:43:49;0.7;;;0.3;;
26824;SDS011;14402;48.178;11.566;2023-04-24T02:44:19;0.8;;;0.3;;
26824;SDS011;14402;48.178;11.566;2023-04-24T02:44:49;0.8;;;0.3;;
26824;SDS011;14402;48.178;11.566;2023-04-24T02:45:19;0.8;;;0.3;;
26824;SDS011;14402;48.178;11.566;2023-04-24T02:45:49;0.6;;;0.2;;
26824;SDS011;14402;48.178;11.566;2023-04-24T02:46:19;0.3;;;0.2;;
26824;SDS011;14402;48.178;11.566;2023-04-24T02:46:49;0.3;;;0.2;;
26824;SDS011;14402;48.178;11.566;2023-04-24T02:47:19;0.3;;;0.2;;
26824;SDS011;14402;48.178;11.566;2023-04-24T02:47:49;0.7;;;0.2;;
26824;SDS011;14402;48.178;11.566;2023-04-24T02:48:19;1.1;;;0.2;;
26824;SDS011;14402;48.178;11.566;2023-04-24T02:48:49;1.1;;;0.2;;
26824;SDS011;14402;48.178;11.566;2023-04-24T02:49:19;1.1;;;0.2;;
26824;SDS011;14402;48.178;11.566;2023-04-24T02:49:49;0.8;;;0.2;;
26824;SDS011;14402;48.178;11.566;2023-04-24T02:50:19;0.5;;;0.3;;
26824;SDS011;14402;48.178;11.566;2023-04-24T02:50:49;0.5;;;0.3;;
26824;SDS011;14402;48.178;11.566;2023-04-24T02:51:20;0.5;;;0.3;;
26824;SDS011;14402;48.178;11.566;2023-04-24T02:51:49;0.6;;;0.3;;
26824;SDS011;14402;48.178;11.566;2023-04-24T02:52:20;0.8;;;0.3;;
26824;SDS011;14402;48.178;11.566;2023-04-24T02:52:50;0.8;;;0.3;;
26824;SDS011;14402;48.178;11.566;2023-04-24T02:53:20;0.8;;;0.3;;
26824;SDS011;14402;48.178;11.566;2023-04-24T02:53:50;0.8;;;0.3;;
26824;SDS011;14402;48.178;11.566;2023-04-24T02:54:20;0.8;;;0.3;;
26824;SDS011;14402;48.178;11.566;2023-04-24T02:54:50;0.8;;;0.3;;
26824;SDS011;14402;48.178;11.566;2023-04-24T02:55:20;0.8;;;0.3;;
26824;SDS011;14402;48.178;11.566;2023-04-24T02:55:50;0.8;;;0.2;;
26824;SDS011;14402;48.178;11.566;2023-04-24T02:56:20;0.7;;;0.2;;
26824;SDS011;14402;48.178;11.566;2023-04-24T02:56:50;0.7;;;0.2;;
26824;SDS011;14402;48.178;11.566;2023-04-24T02:57:20;0.7;;;0.2;;
26824;SDS011;14402;48.178;11.566;2023-04-24T02:57:50;0.8;;;0.2;;
26824;SDS011;14402;48.178;11.566;2023-04-24T02:58:20;0.8;;;0.3;;
26824;SDS011;14402;48.178;11.566;2023-04-24T02:58:50;0.8;;;0.3;;
26824;SDS011;14402;48.178;11.566;2023-04-24T02:59:20;0.8;;;0.3;;
26824;SDS011;14402;48.178;11.566;2023-04-24T02:59:50;0.6;;;0.3;;
26824;SDS011;14402;48.178;11.566;2023-04-24T03:00:20;0.5;;;0.3;;
26824;SDS011;14402;48.178;11.566;2023-04-24T03:00:53;0.5;;;0.3;;
26824;SDS011;14402;48.178;11.566;2023-04-24T03:01:21;0.5;;;0.3;;
26824;SDS011;14402;48.178;11.566;2023-04-24T03:01:51;0.4;;;0.2;;
26824;SDS011;14402;48.178;11.566;2023-04-24T03:02:21;0.4;;;0.2;;
26824;SDS011;14402;48.178;11.566;2023-04-24T03:02:51;0.4;;;0.2;;
26824;SDS011;14402;48.178;11.566;2023-04-24T03:03:21;0.4;;;0.2;;
26824;SDS011;14402;48.178;11.566;2023-04-24T03:03:51;0.6;;;0.2;;